sensor_id;sensor_type;location;lat;lon;timestamp;temperature;humidity
43671;DHT22;29267;50.906;7.248;2022-12-18T00:01:35;-5.70;99.90
43671;DHT22;29267;50.906;7.248;2022-12-18T00:04:04;-5.70;99.90
43671;DHT22;29267;50.906;7.248;2022-12-18T00:06:30;-5.70;99.90
43671;DHT22;29267;50.906;7.248;2022-12-18T00:08:57;-5.70;99.90
43671;DHT22;29267;50.906;7.248;2022-12-18T00:11:25;-5.70;99.90
43671;DHT22;29267;50.906;7.248;2022-12-18T00:13:52;-5.60;99.90
43671;DHT22;29267;50.906;7.248;2022-12-18T00:16:20;-5.80;99.90
43671;DHT22;29267;50.906;7.248;2022-12-18T00:18:47;-5.80;99.90
43671;DHT22;29267;50.906;7.248;2022-12-18T00:21:14;-5.70;99.90
43671;DHT22;29267;50.906;7.248;2022-12-18T00:23:41;-5.70;99.90
43671;DHT22;29267;50.906;7.248;2022-12-18T00:26:11;-5.50;99.90
43671;DHT22;29267;50.906;7.248;2022-12-18T00:28:36;-5.50;99.90
43671;DHT22;29267;50.906;7.248;2022-12-18T00:31:07;-5.50;99.90
43671;DHT22;29267;50.906;7.248;2022-12-18T00:33:34;-5.40;99.90
43671;DHT22;29267;50.906;7.248;2022-12-18T00:36:15;-5.40;99.90
43671;DHT22;29267;50.906;7.248;2022-12-18T00:38:41;-5.40;99.90
43671;DHT22;29267;50.906;7.248;2022-12-18T00:41:08;-5.30;99.90
43671;DHT22;29267;50.906;7.248;2022-12-18T00:43:34;-5.30;99.90
43671;DHT22;29267;50.906;7.248;2022-12-18T00:46:00;-5.20;99.90
43671;DHT22;29267;50.906;7.248;2022-12-18T00:48:25;-5.30;99.90
43671;DHT22;29267;50.906;7.248;2022-12-18T00:50:51;-5.30;99.90
43671;DHT22;29267;50.906;7.248;2022-12-18T00:53:18;-5.30;99.90
43671;DHT22;29267;50.906;7.248;2022-12-18T00:55:44;-5.40;99.90
43671;DHT22;29267;50.906;7.248;2022-12-18T00:58:11;-5.40;99.90
43671;DHT22;29267;50.906;7.248;2022-12-18T01:00:37;-5.50;99.90
43671;DHT22;29267;50.906;7.248;2022-12-18T01:03:03;-5.40;99.90
43671;DHT22;29267;50.906;7.248;2022-12-18T01:05:29;-5.40;99.90
43671;DHT22;29267;50.906;7.248;2022-12-18T01:07:55;-5.50;99.90
43671;DHT22;29267;50.906;7.248;2022-12-18T01:10:21;-5.50;99.90
43671;DHT22;29267;50.906;7.248;2022-12-18T01:12:46;-5.50;99.90
43671;DHT22;29267;50.906;7.248;2022-12-18T01:15:13;-5.50;99.90
43671;DHT22;29267;50.906;7.248;2022-12-18T01:17:39;-5.60;99.90
43671;DHT22;29267;50.906;7.248;2022-12-18T01:20:05;-5.70;99.90
43671;DHT22;29267;50.906;7.248;2022-12-18T01:22:30;-5.80;99.90
43671;DHT22;29267;50.906;7.248;2022-12-18T01:24:56;-5.80;99.90
43671;DHT22;29267;50.906;7.248;2022-12-18T01:27:22;-5.90;99.90
43671;DHT22;29267;50.906;7.248;2022-12-18T01:29:48;-5.90;99.90
43671;DHT22;29267;50.906;7.248;2022-12-18T01:32:14;-5.90;99.90
43671;DHT22;29267;50.906;7.248;2022-12-18T01:34:40;-6.00;99.90
43671;DHT22;29267;50.906;7.248;2022-12-18T01:37:05;-6.00;99.90
43671;DHT22;29267;50.906;7.248;2022-12-18T01:39:31;-5.90;99.90
43671;DHT22;29267;50.906;7.248;2022-12-18T01:41:58;-5.90;99.90
43671;DHT22;29267;50.906;7.248;2022-12-18T01:47:52;-5.80;99.90
43671;DHT22;29267;50.906;7.248;2022-12-18T01:50:40;-5.80;99.90
43671;DHT22;29267;50.906;7.248;2022-12-18T01:53:17;-5.90;99.90
43671;DHT22;29267;50.906;7.248;2022-12-18T01:55:52;-5.90;99.90
43671;DHT22;29267;50.906;7.248;2022-12-18T01:58:19;-5.80;99.90
43671;DHT22;29267;50.906;7.248;2022-12-18T02:00:48;-5.60;99.90
43671;DHT22;29267;50.906;7.248;2022-12-18T02:03:13;-5.60;99.90
43671;DHT22;29267;50.906;7.248;2022-12-18T02:08:36;-5.60;99.90
43671;DHT22;29267;50.906;7.248;2022-12-18T02:11:12;-5.60;99.90
43671;DHT22;29267;50.906;7.248;2022-12-18T02:16:44;-5.60;99.90
43671;DHT22;29267;50.906;7.248;2022-12-18T02:27:18;-5.30;99.90
43671;DHT22;29267;50.906;7.248;2022-12-18T02:29:49;-5.20;99.90
43671;DHT22;29267;50.906;7.248;2022-12-18T02:32:21;-5.30;99.90
43671;DHT22;29267;50.906;7.248;2022-12-18T02:34:50;-5.30;99.90
43671;DHT22;29267;50.906;7.248;2022-12-18T02:37:18;-5.50;99.90
43671;DHT22;29267;50.906;7.248;2022-12-18T02:39:46;-5.60;99.90
43671;DHT22;29267;50.906;7.248;2022-12-18T02:42:13;-5.70;99.90
43671;DHT22;29267;50.906;7.248;2022-12-18T02:44:47;-5.70;99.90
43671;DHT22;29267;50.906;7.248;2022-12-18T02:47:15;-5.90;99.90
43671;DHT22;29267;50.906;7.248;2022-12-18T02:57:58;-6.30;99.90
43671;DHT22;29267;50.906;7.248;2022-12-18T03:03:16;-6.30;99.90
43671;DHT22;29267;50.906;7.248;2022-12-18T03:06:09;-6.20;99.90
43671;DHT22;29267;50.906;7.248;2022-12-18T03:08:42;-6.20;99.90
43671;DHT22;29267;50.906;7.248;2022-12-18T03:11:11;-6.20;99.90
43671;DHT22;29267;50.906;7.248;2022-12-18T03:13:45;-6.20;99.90
43671;DHT22;29267;50.906;7.248;2022-12-18T03:16:20;-6.20;99.90
43671;DHT22;29267;50.906;7.248;2022-12-18T03:19:13;-6.00;99.90
43671;DHT22;29267;50.906;7.248;2022-12-18T03:21:40;-5.90;99.90
43671;DHT22;29267;50.906;7.248;2022-12-18T03:24:09;-6.00;99.90
43671;DHT22;29267;50.906;7.248;2022-12-18T03:26:38;-6.00;99.90
43671;DHT22;29267;50.906;7.248;2022-12-18T03:29:38;-6.00;99.90
43671;DHT22;29267;50.906;7.248;2022-12-18T03:32:11;-5.80;99.90
43671;DHT22;29267;50.906;7.248;2022-12-18T03:34:40;-5.80;99.90
43671;DHT22;29267;50.906;7.248;2022-12-18T03:37:07;-5.70;99.90
43671;DHT22;29267;50.906;7.248;2022-12-18T03:39:34;-5.70;99.90
43671;DHT22;29267;50.906;7.248;2022-12-18T03:51:02;-5.70;99.90
43671;DHT22;29267;50.906;7.248;2022-12-18T03:56:16;-5.70;99.90
43671;DHT22;29267;50.906;7.248;2022-12-18T03:58:44;-5.80;99.90
43671;DHT22;29267;50.906;7.248;2022-12-18T04:01:13;-5.80;99.90
43671;DHT22;29267;50.906;7.248;2022-12-18T04:03:41;-5.80;99.90
43671;DHT22;29267;50.906;7.248;2022-12-18T04:06:07;-5.70;99.90
43671;DHT22;29267;50.906;7.248;2022-12-18T04:08:34;-5.70;99.90
43671;DHT22;29267;50.906;7.248;2022-12-18T04:11:01;-5.70;99.90
43671;DHT22;29267;50.906;7.248;2022-12-18T04:13:35;-5.60;99.90
43671;DHT22;29267;50.906;7.248;2022-12-18T04:16:00;-5.60;99.90
43671;DHT22;29267;50.906;7.248;2022-12-18T04:18:26;-5.50;99.90
43671;DHT22;29267;50.906;7.248;2022-12-18T04:20:52;-5.70;99.90
43671;DHT22;29267;50.906;7.248;2022-12-18T04:23:18;-5.60;99.90
43671;DHT22;29267;50.906;7.248;2022-12-18T04:25:43;-5.70;99.90
43671;DHT22;29267;50.906;7.248;2022-12-18T04:28:09;-5.70;99.90
43671;DHT22;29267;50.906;7.248;2022-12-18T04:30:34;-5.60;99.90
43671;DHT22;29267;50.906;7.248;2022-12-18T04:33:00;-5.60;99.90
43671;DHT22;29267;50.906;7.248;2022-12-18T04:35:26;-5.60;99.90
43671;DHT22;29267;50.906;7.248;2022-12-18T04:37:51;-5.70;99.90
43671;DHT22;29267;50.906;7.248;2022-12-18T04:40:17;-5.80;99.90
43671;DHT22;29267;50.906;7.248;2022-12-18T04:42:42;-5.80;99.90
43671;DHT22;29267;50.906;7.248;2022-12-18T04:45:08;-5.80;99.90
43671;DHT22;29267;50.906;7.248;2022-12-18T04:47:34;-5.80;99.90
43671;DHT22;29267;50.906;7.248;2022-12-18T04:49:59;-5.80;99.90
43671;DHT22;29267;50.906;7.248;2022-12-18T04:52:25;-5.80;99.90
43671;DHT22;29267;50.906;7.248;2022-12-18T04:54:51;-5.90;99.90
43671;DHT22;29267;50.906;7.248;2022-12-18T04:57:16;-5.90;99.90
43671;DHT22;29267;50.906;7.248;2022-12-18T04:59:43;-5.90;99.90
43671;DHT22;29267;50.906;7.248;2022-12-18T05:02:09;-5.80;99.90
43671;DHT22;29267;50.906;7.248;2022-12-18T05:04:35;-5.80;99.90
43671;DHT22;29267;50.906;7.248;2022-12-18T05:07:00;-5.80;99.90
43671;DHT22;29267;50.906;7.248;2022-12-18T05:09:26;-5.90;99.90
43671;DHT22;29267;50.906;7.248;2022-12-18T05:11:52;-5.90;99.90
43671;DHT22;29267;50.906;7.248;2022-12-18T05:14:17;-6.00;99.90
43671;DHT22;29267;50.906;7.248;2022-12-18T05:16:43;-6.00;99.90
43671;DHT22;29267;50.906;7.248;2022-12-18T05:19:08;-6.00;99.90
43671;DHT22;29267;50.906;7.248;2022-12-18T05:21:34;-5.90;99.90
43671;DHT22;29267;50.906;7.248;2022-12-18T05:24:00;-5.90;99.90
43671;DHT22;29267;50.906;7.248;2022-12-18T05:26:25;-5.90;99.90
43671;DHT22;29267;50.906;7.248;2022-12-18T05:28:51;-5.80;99.90
43671;DHT22;29267;50.906;7.248;2022-12-18T05:31:16;-5.80;99.90
43671;DHT22;29267;50.906;7.248;2022-12-18T05:33:42;-5.90;99.90
43671;DHT22;29267;50.906;7.248;2022-12-18T05:36:08;-5.90;99.90
43671;DHT22;29267;50.906;7.248;2022-12-18T05:38:36;-6.00;99.90
43671;DHT22;29267;50.906;7.248;2022-12-18T05:41:02;-5.90;99.90
43671;DHT22;29267;50.906;7.248;2022-12-18T05:43:28;-5.80;99.90
43671;DHT22;29267;50.906;7.248;2022-12-18T05:45:54;-5.90;99.90
43671;DHT22;29267;50.906;7.248;2022-12-18T05:48:20;-6.00;99.90
43671;DHT22;29267;50.906;7.248;2022-12-18T05:50:48;-6.00;99.90
43671;DHT22;29267;50.906;7.248;2022-12-18T05:53:15;-6.20;99.90
43671;DHT22;29267;50.906;7.248;2022-12-18T05:55:42;-6.20;99.90
43671;DHT22;29267;50.906;7.248;2022-12-18T05:58:10;-6.20;99.90
43671;DHT22;29267;50.906;7.248;2022-12-18T06:00:37;-6.20;99.90
43671;DHT22;29267;50.906;7.248;2022-12-18T06:03:10;-6.20;99.90
43671;DHT22;29267;50.906;7.248;2022-12-18T06:05:38;-6.20;99.90
43671;DHT22;29267;50.906;7.248;2022-12-18T06:08:04;-6.20;99.90
43671;DHT22;29267;50.906;7.248;2022-12-18T06:10:30;-6.20;99.90
43671;DHT22;29267;50.906;7.248;2022-12-18T06:12:56;-6.20;99.90
43671;DHT22;29267;50.906;7.248;2022-12-18T06:15:21;-6.20;99.90
43671;DHT22;29267;50.906;7.248;2022-12-18T06:17:47;-6.20;99.90
43671;DHT22;29267;50.906;7.248;2022-12-18T06:20:12;-6.30;99.90
43671;DHT22;29267;50.906;7.248;2022-12-18T06:22:38;-6.20;99.90
43671;DHT22;29267;50.906;7.248;2022-12-18T06:25:04;-6.30;99.90
43671;DHT22;29267;50.906;7.248;2022-12-18T06:27:31;-6.30;99.90
43671;DHT22;29267;50.906;7.248;2022-12-18T06:29:59;-6.30;99.90
43671;DHT22;29267;50.906;7.248;2022-12-18T06:32:24;-6.20;99.90
43671;DHT22;29267;50.906;7.248;2022-12-18T06:34:50;-6.30;99.90
43671;DHT22;29267;50.906;7.248;2022-12-18T06:37:15;-6.30;99.90
43671;DHT22;29267;50.906;7.248;2022-12-18T06:39:41;-6.30;99.90
43671;DHT22;29267;50.906;7.248;2022-12-18T06:42:07;-6.20;99.90
43671;DHT22;29267;50.906;7.248;2022-12-18T06:44:32;-6.20;99.90
43671;DHT22;29267;50.906;7.248;2022-12-18T06:46:58;-6.10;99.90
43671;DHT22;29267;50.906;7.248;2022-12-18T06:49:23;-6.10;99.90
43671;DHT22;29267;50.906;7.248;2022-12-18T06:51:49;-6.10;99.90
43671;DHT22;29267;50.906;7.248;2022-12-18T06:54:15;-6.10;99.90
43671;DHT22;29267;50.906;7.248;2022-12-18T06:56:40;-6.10;99.90
43671;DHT22;29267;50.906;7.248;2022-12-18T06:59:06;-6.20;99.90
43671;DHT22;29267;50.906;7.248;2022-12-18T07:01:31;-6.10;99.90
43671;DHT22;29267;50.906;7.248;2022-12-18T07:03:57;-6.00;99.90
43671;DHT22;29267;50.906;7.248;2022-12-18T07:06:24;-5.90;99.90
43671;DHT22;29267;50.906;7.248;2022-12-18T07:08:51;-5.80;99.90
43671;DHT22;29267;50.906;7.248;2022-12-18T07:11:18;-5.80;99.90
43671;DHT22;29267;50.906;7.248;2022-12-18T07:13:44;-5.70;99.90
43671;DHT22;29267;50.906;7.248;2022-12-18T07:16:18;-5.70;99.90
43671;DHT22;29267;50.906;7.248;2022-12-18T07:18:44;-5.70;99.90
43671;DHT22;29267;50.906;7.248;2022-12-18T07:21:13;-5.80;99.90
43671;DHT22;29267;50.906;7.248;2022-12-18T07:23:39;-5.80;99.90
43671;DHT22;29267;50.906;7.248;2022-12-18T07:26:06;-5.90;99.90
43671;DHT22;29267;50.906;7.248;2022-12-18T07:28:33;-5.90;99.90
43671;DHT22;29267;50.906;7.248;2022-12-18T07:31:03;-5.90;99.90
43671;DHT22;29267;50.906;7.248;2022-12-18T07:33:29;-6.00;99.90
43671;DHT22;29267;50.906;7.248;2022-12-18T07:35:54;-6.10;99.90
43671;DHT22;29267;50.906;7.248;2022-12-18T07:38:21;-6.10;99.90
43671;DHT22;29267;50.906;7.248;2022-12-18T07:40:46;-6.10;99.90
43671;DHT22;29267;50.906;7.248;2022-12-18T07:43:12;-6.10;99.90
43671;DHT22;29267;50.906;7.248;2022-12-18T07:45:37;-6.00;99.90
43671;DHT22;29267;50.906;7.248;2022-12-18T07:48:04;-5.80;99.90
43671;DHT22;29267;50.906;7.248;2022-12-18T07:50:29;-5.70;99.90
43671;DHT22;29267;50.906;7.248;2022-12-18T07:52:55;-5.60;99.90
43671;DHT22;29267;50.906;7.248;2022-12-18T07:55:20;-5.60;99.90
43671;DHT22;29267;50.906;7.248;2022-12-18T07:57:46;-5.50;99.90
43671;DHT22;29267;50.906;7.248;2022-12-18T08:00:12;-5.40;99.90
43671;DHT22;29267;50.906;7.248;2022-12-18T08:02:38;-5.40;99.90
43671;DHT22;29267;50.906;7.248;2022-12-18T08:05:03;-5.30;99.90
43671;DHT22;29267;50.906;7.248;2022-12-18T08:07:29;-5.30;99.90
43671;DHT22;29267;50.906;7.248;2022-12-18T08:09:55;-5.20;99.90
43671;DHT22;29267;50.906;7.248;2022-12-18T08:12:20;-5.10;99.90
43671;DHT22;29267;50.906;7.248;2022-12-18T08:14:46;-5.00;99.90
43671;DHT22;29267;50.906;7.248;2022-12-18T08:17:11;-4.90;99.90
43671;DHT22;29267;50.906;7.248;2022-12-18T08:19:37;-4.80;99.90
43671;DHT22;29267;50.906;7.248;2022-12-18T08:22:02;-4.80;99.90
43671;DHT22;29267;50.906;7.248;2022-12-18T08:24:28;-4.80;99.90
43671;DHT22;29267;50.906;7.248;2022-12-18T08:26:54;-4.70;99.90
43671;DHT22;29267;50.906;7.248;2022-12-18T08:29:19;-4.60;99.90
43671;DHT22;29267;50.906;7.248;2022-12-18T08:31:45;-4.60;99.90
43671;DHT22;29267;50.906;7.248;2022-12-18T08:34:11;-4.50;99.90
43671;DHT22;29267;50.906;7.248;2022-12-18T08:36:36;-4.40;99.90
43671;DHT22;29267;50.906;7.248;2022-12-18T08:39:02;-4.30;99.90
43671;DHT22;29267;50.906;7.248;2022-12-18T08:41:28;-4.30;99.90
43671;DHT22;29267;50.906;7.248;2022-12-18T08:43:53;-4.20;99.90
43671;DHT22;29267;50.906;7.248;2022-12-18T08:46:40;-4.20;99.90
43671;DHT22;29267;50.906;7.248;2022-12-18T08:49:07;-4.10;99.90
43671;DHT22;29267;50.906;7.248;2022-12-18T08:51:34;-4.10;99.90
43671;DHT22;29267;50.906;7.248;2022-12-18T08:54:00;-4.10;99.90
43671;DHT22;29267;50.906;7.248;2022-12-18T08:56:25;-4.00;99.90
43671;DHT22;29267;50.906;7.248;2022-12-18T08:58:52;-3.90;99.90
43671;DHT22;29267;50.906;7.248;2022-12-18T09:01:18;-3.80;99.90
43671;DHT22;29267;50.906;7.248;2022-12-18T09:03:44;-3.80;99.90
43671;DHT22;29267;50.906;7.248;2022-12-18T09:06:14;-3.70;99.90
43671;DHT22;29267;50.906;7.248;2022-12-18T09:08:41;-3.60;99.90
43671;DHT22;29267;50.906;7.248;2022-12-18T09:11:22;-3.50;99.90
43671;DHT22;29267;50.906;7.248;2022-12-18T09:13:48;-3.40;99.90
43671;DHT22;29267;50.906;7.248;2022-12-18T09:16:14;-3.30;99.90
43671;DHT22;29267;50.906;7.248;2022-12-18T09:18:39;-3.20;99.90
43671;DHT22;29267;50.906;7.248;2022-12-18T09:21:10;-3.00;99.90
43671;DHT22;29267;50.906;7.248;2022-12-18T09:23:36;-2.90;99.90
43671;DHT22;29267;50.906;7.248;2022-12-18T09:26:01;-2.80;99.90
43671;DHT22;29267;50.906;7.248;2022-12-18T09:28:28;-2.80;99.90
43671;DHT22;29267;50.906;7.248;2022-12-18T09:30:53;-2.70;99.90
43671;DHT22;29267;50.906;7.248;2022-12-18T09:33:19;-2.60;99.90
43671;DHT22;29267;50.906;7.248;2022-12-18T09:35:45;-2.60;99.90
43671;DHT22;29267;50.906;7.248;2022-12-18T09:38:17;-2.60;99.90
43671;DHT22;29267;50.906;7.248;2022-12-18T09:43:18;-2.40;99.90
43671;DHT22;29267;50.906;7.248;2022-12-18T09:45:47;-2.40;99.90
43671;DHT22;29267;50.906;7.248;2022-12-18T09:48:29;-2.30;99.90
43671;DHT22;29267;50.906;7.248;2022-12-18T09:51:00;-2.20;99.90
43671;DHT22;29267;50.906;7.248;2022-12-18T09:53:30;-2.10;99.90
43671;DHT22;29267;50.906;7.248;2022-12-18T09:55:57;-2.00;99.90
43671;DHT22;29267;50.906;7.248;2022-12-18T09:58:36;-1.90;99.90
43671;DHT22;29267;50.906;7.248;2022-12-18T10:01:11;-1.80;99.90
43671;DHT22;29267;50.906;7.248;2022-12-18T10:03:37;-1.70;99.90
43671;DHT22;29267;50.906;7.248;2022-12-18T10:11:34;-1.40;99.90
43671;DHT22;29267;50.906;7.248;2022-12-18T10:14:08;-1.30;99.90
43671;DHT22;29267;50.906;7.248;2022-12-18T10:25:09;-1.00;99.90
43671;DHT22;29267;50.906;7.248;2022-12-18T10:27:39;-1.00;99.90
43671;DHT22;29267;50.906;7.248;2022-12-18T10:30:16;-0.90;99.90
43671;DHT22;29267;50.906;7.248;2022-12-18T10:32:42;-0.80;99.90
43671;DHT22;29267;50.906;7.248;2022-12-18T10:35:25;-0.70;99.90
43671;DHT22;29267;50.906;7.248;2022-12-18T10:41:45;-0.50;99.90
43671;DHT22;29267;50.906;7.248;2022-12-18T10:44:17;-0.50;99.90
43671;DHT22;29267;50.906;7.248;2022-12-18T10:46:49;-0.40;99.90
43671;DHT22;29267;50.906;7.248;2022-12-18T10:49:23;-0.30;99.90
43671;DHT22;29267;50.906;7.248;2022-12-18T10:51:51;-0.30;99.90
43671;DHT22;29267;50.906;7.248;2022-12-18T10:54:21;-0.20;99.90
43671;DHT22;29267;50.906;7.248;2022-12-18T10:56:47;-0.20;99.90
43671;DHT22;29267;50.906;7.248;2022-12-18T10:59:16;-0.20;99.90
43671;DHT22;29267;50.906;7.248;2022-12-18T11:01:56;-0.10;99.90
43671;DHT22;29267;50.906;7.248;2022-12-18T11:04:23;0.00;99.90
43671;DHT22;29267;50.906;7.248;2022-12-18T11:07:04;-0.10;99.90
43671;DHT22;29267;50.906;7.248;2022-12-18T11:09:32;0.00;99.90
43671;DHT22;29267;50.906;7.248;2022-12-18T11:12:00;0.00;99.90
43671;DHT22;29267;50.906;7.248;2022-12-18T11:14:32;0.10;99.90
43671;DHT22;29267;50.906;7.248;2022-12-18T11:17:00;0.20;99.90
43671;DHT22;29267;50.906;7.248;2022-12-18T11:19:36;0.20;99.90
43671;DHT22;29267;50.906;7.248;2022-12-18T11:22:22;0.30;99.90
43671;DHT22;29267;50.906;7.248;2022-12-18T11:25:05;0.40;99.90
43671;DHT22;29267;50.906;7.248;2022-12-18T11:27:32;0.40;99.90
43671;DHT22;29267;50.906;7.248;2022-12-18T11:33:06;0.40;99.90
43671;DHT22;29267;50.906;7.248;2022-12-18T11:35:56;0.40;99.90
43671;DHT22;29267;50.906;7.248;2022-12-18T11:38:29;0.40;99.90
43671;DHT22;29267;50.906;7.248;2022-12-18T11:41:04;0.40;99.90
43671;DHT22;29267;50.906;7.248;2022-12-18T11:46:03;0.30;99.90
43671;DHT22;29267;50.906;7.248;2022-12-18T11:48:34;0.30;99.90
43671;DHT22;29267;50.906;7.248;2022-12-18T11:51:05;0.20;99.90
43671;DHT22;29267;50.906;7.248;2022-12-18T11:53:35;0.20;99.90
43671;DHT22;29267;50.906;7.248;2022-12-18T11:56:32;0.20;99.90
43671;DHT22;29267;50.906;7.248;2022-12-18T11:59:05;0.20;99.90
43671;DHT22;29267;50.906;7.248;2022-12-18T12:02:11;0.10;99.90
43671;DHT22;29267;50.906;7.248;2022-12-18T12:07:43;-0.10;99.90
43671;DHT22;29267;50.906;7.248;2022-12-18T12:10:28;0.00;99.90
43671;DHT22;29267;50.906;7.248;2022-12-18T12:13:10;-0.10;99.90
43671;DHT22;29267;50.906;7.248;2022-12-18T12:21:39;-0.10;99.90
43671;DHT22;29267;50.906;7.248;2022-12-18T12:29:46;-0.20;99.90
43671;DHT22;29267;50.906;7.248;2022-12-18T12:33:29;-0.20;99.90
43671;DHT22;29267;50.906;7.248;2022-12-18T12:35:47;-0.10;99.90
43671;DHT22;29267;50.906;7.248;2022-12-18T12:38:24;-0.30;99.90
43671;DHT22;29267;50.906;7.248;2022-12-18T12:40:59;-0.40;99.90
43671;DHT22;29267;50.906;7.248;2022-12-18T12:43:40;-0.40;99.90
43671;DHT22;29267;50.906;7.248;2022-12-18T12:46:12;-0.40;99.90
43671;DHT22;29267;50.906;7.248;2022-12-18T12:48:51;-0.50;99.90
43671;DHT22;29267;50.906;7.248;2022-12-18T12:51:24;-0.50;99.90
43671;DHT22;29267;50.906;7.248;2022-12-18T12:53:53;-0.60;99.90
43671;DHT22;29267;50.906;7.248;2022-12-18T12:56:20;-0.60;99.90
43671;DHT22;29267;50.906;7.248;2022-12-18T12:58:58;-0.70;99.90
43671;DHT22;29267;50.906;7.248;2022-12-18T13:07:01;-0.70;99.90
43671;DHT22;29267;50.906;7.248;2022-12-18T13:09:32;-0.80;99.90
43671;DHT22;29267;50.906;7.248;2022-12-18T13:12:10;-0.80;99.90
43671;DHT22;29267;50.906;7.248;2022-12-18T13:15:30;-0.70;99.90
43671;DHT22;29267;50.906;7.248;2022-12-18T13:18:05;-0.70;99.90
43671;DHT22;29267;50.906;7.248;2022-12-18T13:20:35;-0.80;99.90
43671;DHT22;29267;50.906;7.248;2022-12-18T13:25:46;-0.80;99.90
43671;DHT22;29267;50.906;7.248;2022-12-18T13:28:16;-0.80;99.90
43671;DHT22;29267;50.906;7.248;2022-12-18T13:30:46;-0.90;99.90
43671;DHT22;29267;50.906;7.248;2022-12-18T13:38:44;-0.90;99.90
43671;DHT22;29267;50.906;7.248;2022-12-18T13:46:30;-0.90;99.90
43671;DHT22;29267;50.906;7.248;2022-12-18T13:49:15;-0.80;99.90
43671;DHT22;29267;50.906;7.248;2022-12-18T13:51:50;-0.90;99.90
43671;DHT22;29267;50.906;7.248;2022-12-18T13:54:34;-0.90;99.90
43671;DHT22;29267;50.906;7.248;2022-12-18T13:57:01;-0.90;99.90
43671;DHT22;29267;50.906;7.248;2022-12-18T13:59:37;-1.00;99.90
43671;DHT22;29267;50.906;7.248;2022-12-18T14:02:18;-1.00;99.90
43671;DHT22;29267;50.906;7.248;2022-12-18T14:04:47;-1.00;99.90
43671;DHT22;29267;50.906;7.248;2022-12-18T14:07:26;-1.10;99.90
43671;DHT22;29267;50.906;7.248;2022-12-18T14:09:58;-1.10;99.90
43671;DHT22;29267;50.906;7.248;2022-12-18T14:12:28;-1.10;99.90
43671;DHT22;29267;50.906;7.248;2022-12-18T14:15:33;-1.10;99.90
43671;DHT22;29267;50.906;7.248;2022-12-18T14:18:02;-1.10;99.90
43671;DHT22;29267;50.906;7.248;2022-12-18T14:20:32;-1.10;99.90
43671;DHT22;29267;50.906;7.248;2022-12-18T14:22:58;-1.20;99.90
43671;DHT22;29267;50.906;7.248;2022-12-18T14:25:26;-1.20;99.90
43671;DHT22;29267;50.906;7.248;2022-12-18T14:28:08;-1.20;99.90
43671;DHT22;29267;50.906;7.248;2022-12-18T14:30:38;-1.30;99.90
43671;DHT22;29267;50.906;7.248;2022-12-18T14:33:09;-1.30;99.90
43671;DHT22;29267;50.906;7.248;2022-12-18T14:36:19;-1.30;99.90
43671;DHT22;29267;50.906;7.248;2022-12-18T14:38:37;-1.40;99.90
43671;DHT22;29267;50.906;7.248;2022-12-18T14:41:04;-1.40;99.90
43671;DHT22;29267;50.906;7.248;2022-12-18T14:43:33;-1.40;99.90
43671;DHT22;29267;50.906;7.248;2022-12-18T14:46:00;-1.40;99.90
43671;DHT22;29267;50.906;7.248;2022-12-18T14:53:39;-1.50;99.90
43671;DHT22;29267;50.906;7.248;2022-12-18T14:56:33;-1.50;99.90
43671;DHT22;29267;50.906;7.248;2022-12-18T14:59:17;-1.50;99.90
43671;DHT22;29267;50.906;7.248;2022-12-18T15:01:47;-1.60;99.90
43671;DHT22;29267;50.906;7.248;2022-12-18T15:04:35;-1.60;99.90
43671;DHT22;29267;50.906;7.248;2022-12-18T15:09:29;-1.70;99.90
43671;DHT22;29267;50.906;7.248;2022-12-18T15:11:57;-1.70;99.90
43671;DHT22;29267;50.906;7.248;2022-12-18T15:14:33;-1.70;99.90
43671;DHT22;29267;50.906;7.248;2022-12-18T15:17:00;-1.80;99.90
43671;DHT22;29267;50.906;7.248;2022-12-18T15:19:39;-1.80;99.90
43671;DHT22;29267;50.906;7.248;2022-12-18T15:22:29;-1.80;99.90
43671;DHT22;29267;50.906;7.248;2022-12-18T15:24:57;-1.80;99.90
43671;DHT22;29267;50.906;7.248;2022-12-18T15:27:45;-1.80;99.90
43671;DHT22;29267;50.906;7.248;2022-12-18T15:32:43;-1.90;99.90
43671;DHT22;29267;50.906;7.248;2022-12-18T15:35:14;-1.90;99.90
43671;DHT22;29267;50.906;7.248;2022-12-18T15:37:41;-1.90;99.90
43671;DHT22;29267;50.906;7.248;2022-12-18T15:40:12;-2.00;99.90
43671;DHT22;29267;50.906;7.248;2022-12-18T15:42:38;-2.00;99.90
43671;DHT22;29267;50.906;7.248;2022-12-18T15:45:22;-2.00;99.90
43671;DHT22;29267;50.906;7.248;2022-12-18T15:47:47;-2.00;99.90
43671;DHT22;29267;50.906;7.248;2022-12-18T15:50:13;-2.00;99.90
43671;DHT22;29267;50.906;7.248;2022-12-18T15:52:44;-2.00;99.90
43671;DHT22;29267;50.906;7.248;2022-12-18T15:55:16;-2.00;99.90
43671;DHT22;29267;50.906;7.248;2022-12-18T15:58:00;-2.00;99.90
43671;DHT22;29267;50.906;7.248;2022-12-18T16:00:26;-2.10;99.90
43671;DHT22;29267;50.906;7.248;2022-12-18T16:02:52;-2.10;99.90
43671;DHT22;29267;50.906;7.248;2022-12-18T16:05:19;-2.10;99.90
43671;DHT22;29267;50.906;7.248;2022-12-18T16:07:45;-2.10;99.90
43671;DHT22;29267;50.906;7.248;2022-12-18T16:10:12;-2.00;99.90
43671;DHT22;29267;50.906;7.248;2022-12-18T16:12:38;-2.00;99.90
43671;DHT22;29267;50.906;7.248;2022-12-18T16:15:04;-2.00;99.90
43671;DHT22;29267;50.906;7.248;2022-12-18T16:17:30;-2.00;99.90
43671;DHT22;29267;50.906;7.248;2022-12-18T16:19:56;-2.10;99.90
43671;DHT22;29267;50.906;7.248;2022-12-18T16:22:26;-2.00;99.90
43671;DHT22;29267;50.906;7.248;2022-12-18T16:24:53;-2.00;99.90
43671;DHT22;29267;50.906;7.248;2022-12-18T16:27:20;-2.00;99.90
43671;DHT22;29267;50.906;7.248;2022-12-18T16:29:46;-2.10;99.90
43671;DHT22;29267;50.906;7.248;2022-12-18T16:32:18;-2.10;99.90
43671;DHT22;29267;50.906;7.248;2022-12-18T16:34:44;-2.10;99.90
43671;DHT22;29267;50.906;7.248;2022-12-18T16:37:12;-2.10;99.90
43671;DHT22;29267;50.906;7.248;2022-12-18T16:39:38;-2.10;99.90
43671;DHT22;29267;50.906;7.248;2022-12-18T16:42:09;-2.20;99.90
43671;DHT22;29267;50.906;7.248;2022-12-18T16:44:35;-2.10;99.90
43671;DHT22;29267;50.906;7.248;2022-12-18T16:47:01;-2.10;99.90
43671;DHT22;29267;50.906;7.248;2022-12-18T16:49:27;-2.10;99.90
43671;DHT22;29267;50.906;7.248;2022-12-18T16:51:54;-2.10;99.90
43671;DHT22;29267;50.906;7.248;2022-12-18T16:54:20;-2.10;99.90
43671;DHT22;29267;50.906;7.248;2022-12-18T16:56:45;-2.20;99.90
43671;DHT22;29267;50.906;7.248;2022-12-18T16:59:14;-2.20;99.90
43671;DHT22;29267;50.906;7.248;2022-12-18T17:01:40;-2.10;99.90
43671;DHT22;29267;50.906;7.248;2022-12-18T17:04:06;-2.20;99.90
43671;DHT22;29267;50.906;7.248;2022-12-18T17:06:34;-2.10;99.90
43671;DHT22;29267;50.906;7.248;2022-12-18T17:09:03;-2.10;99.90
43671;DHT22;29267;50.906;7.248;2022-12-18T17:11:31;-2.20;99.90
43671;DHT22;29267;50.906;7.248;2022-12-18T17:13:57;-2.10;99.90
43671;DHT22;29267;50.906;7.248;2022-12-18T17:16:24;-2.20;99.90
43671;DHT22;29267;50.906;7.248;2022-12-18T17:18:51;-2.20;99.90
43671;DHT22;29267;50.906;7.248;2022-12-18T17:21:17;-2.10;99.90
43671;DHT22;29267;50.906;7.248;2022-12-18T17:23:43;-2.10;99.90
43671;DHT22;29267;50.906;7.248;2022-12-18T17:26:10;-2.20;99.90
43671;DHT22;29267;50.906;7.248;2022-12-18T17:28:37;-2.20;99.90
43671;DHT22;29267;50.906;7.248;2022-12-18T17:31:17;-2.20;99.90
43671;DHT22;29267;50.906;7.248;2022-12-18T17:33:43;-2.20;99.90
43671;DHT22;29267;50.906;7.248;2022-12-18T17:36:10;-2.20;99.90
43671;DHT22;29267;50.906;7.248;2022-12-18T17:38:37;-2.20;99.90